sensor_id;sensor_type;location;lat;lon;timestamp;P1;durP1;ratioP1;P2;durP2;ratioP2
5414;SDS011;2730;51.512;7.504;2022-12-04T06:00:17;21.00;;;9.90;;
5414;SDS011;2730;51.512;7.504;2022-12-04T06:02:44;25.95;;;10.68;;
5414;SDS011;2730;51.512;7.504;2022-12-04T06:05:11;24.33;;;9.90;;
5414;SDS011;2730;51.512;7.504;2022-12-04T06:07:38;22.05;;;9.07;;
5414;SDS011;2730;51.512;7.504;2022-12-04T06:10:05;19.98;;;8.60;;
5414;SDS011;2730;51.512;7.504;2022-12-04T06:12:32;24.80;;;10.43;;
5414;SDS011;2730;51.512;7.504;2022-12-04T06:15:00;18.63;;;9.55;;
5414;SDS011;2730;51.512;7.504;2022-12-04T06:17:29;17.42;;;8.00;;
5414;SDS011;2730;51.512;7.504;2022-12-04T06:19:56;19.55;;;8.82;;
5414;SDS011;2730;51.512;7.504;2022-12-04T06:22:22;19.15;;;9.27;;
5414;SDS011;2730;51.512;7.504;2022-12-04T06:24:49;21.10;;;8.90;;
5414;SDS011;2730;51.512;7.504;2022-12-04T06:27:16;21.05;;;9.45;;
5414;SDS011;2730;51.512;7.504;2022-12-04T06:29:43;19.35;;;7.97;;
5414;SDS011;2730;51.512;7.504;2022-12-04T06:32:10;19.55;;;8.95;;
5414;SDS011;2730;51.512;7.504;2022-12-04T06:34:38;20.63;;;9.07;;
5414;SDS011;2730;51.512;7.504;2022-12-04T06:37:05;17.33;;;8.13;;
5414;SDS011;2730;51.512;7.504;2022-12-04T06:39:33;14.57;;;7.25;;
5414;SDS011;2730;51.512;7.504;2022-12-04T06:42:00;31.42;;;9.73;;
5414;SDS011;2730;51.512;7.504;2022-12-04T06:44:27;19.92;;;8.63;;
5414;SDS011;2730;51.512;7.504;2022-12-04T06:46:54;26.00;;;8.45;;
5414;SDS011;2730;51.512;7.504;2022-12-04T06:49:21;19.63;;;8.52;;
5414;SDS011;2730;51.512;7.504;2022-12-04T06:51:51;22.77;;;9.00;;
5414;SDS011;2730;51.512;7.504;2022-12-04T06:54:18;30.08;;;10.68;;
5414;SDS011;2730;51.512;7.504;2022-12-04T06:56:45;17.48;;;9.43;;
5414;SDS011;2730;51.512;7.504;2022-12-04T06:59:13;20.58;;;10.63;;
5414;SDS011;2730;51.512;7.504;2022-12-04T07:01:40;19.33;;;8.45;;
5414;SDS011;2730;51.512;7.504;2022-12-04T07:04:07;21.70;;;9.85;;
5414;SDS011;2730;51.512;7.504;2022-12-04T07:06:35;14.30;;;7.50;;
5414;SDS011;2730;51.512;7.504;2022-12-04T07:09:06;22.63;;;8.45;;
5414;SDS011;2730;51.512;7.504;2022-12-04T07:11:35;24.00;;;9.27;;
5414;SDS011;2730;51.512;7.504;2022-12-04T07:14:02;19.13;;;8.40;;
5414;SDS011;2730;51.512;7.504;2022-12-04T07:16:30;17.95;;;8.40;;
5414;SDS011;2730;51.512;7.504;2022-12-04T07:18:57;18.38;;;8.48;;
5414;SDS011;2730;51.512;7.504;2022-12-04T07:21:25;20.38;;;10.80;;
5414;SDS011;2730;51.512;7.504;2022-12-04T07:23:53;17.63;;;9.75;;
5414;SDS011;2730;51.512;7.504;2022-12-04T07:26:24;19.52;;;9.70;;
5414;SDS011;2730;51.512;7.504;2022-12-04T07:28:52;17.27;;;8.50;;
5414;SDS011;2730;51.512;7.504;2022-12-04T07:31:20;23.73;;;9.57;;
5414;SDS011;2730;51.512;7.504;2022-12-04T07:33:49;16.90;;;8.18;;
5414;SDS011;2730;51.512;7.504;2022-12-04T07:36:18;21.15;;;8.30;;
5414;SDS011;2730;51.512;7.504;2022-12-04T07:38:46;17.77;;;7.93;;
5414;SDS011;2730;51.512;7.504;2022-12-04T07:41:14;24.13;;;8.50;;
5414;SDS011;2730;51.512;7.504;2022-12-04T07:43:42;19.38;;;8.40;;
5414;SDS011;2730;51.512;7.504;2022-12-04T07:46:10;19.80;;;9.05;;
5414;SDS011;2730;51.512;7.504;2022-12-04T07:48:39;20.73;;;9.82;;
5414;SDS011;2730;51.512;7.504;2022-12-04T07:51:07;20.27;;;9.45;;
5414;SDS011;2730;51.512;7.504;2022-12-04T07:53:35;24.35;;;9.63;;
5414;SDS011;2730;51.512;7.504;2022-12-04T07:56:03;18.73;;;9.00;;
5414;SDS011;2730;51.512;7.504;2022-12-04T07:58:31;20.27;;;8.93;;
5414;SDS011;2730;51.512;7.504;2022-12-04T08:01:05;18.88;;;9.00;;
5414;SDS011;2730;51.512;7.504;2022-12-04T08:03:32;18.20;;;8.65;;
5414;SDS011;2730;51.512;7.504;2022-12-04T08:05:59;19.25;;;8.50;;
5414;SDS011;2730;51.512;7.504;2022-12-04T08:08:26;16.88;;;8.93;;
5414;SDS011;2730;51.512;7.504;2022-12-04T08:10:53;16.95;;;8.35;;
5414;SDS011;2730;51.512;7.504;2022-12-04T08:13:20;21.85;;;9.23;;
5414;SDS011;2730;51.512;7.504;2022-12-04T08:15:47;20.52;;;10.23;;
5414;SDS011;2730;51.512;7.504;2022-12-04T08:18:15;25.45;;;10.30;;
5414;SDS011;2730;51.512;7.504;2022-12-04T08:20:42;22.88;;;9.88;;
5414;SDS011;2730;51.512;7.504;2022-12-04T08:23:09;23.90;;;8.98;;
5414;SDS011;2730;51.512;7.504;2022-12-04T08:25:37;22.13;;;9.18;;
5414;SDS011;2730;51.512;7.504;2022-12-04T08:28:04;19.40;;;9.57;;
5414;SDS011;2730;51.512;7.504;2022-12-04T08:30:31;17.73;;;8.90;;
5414;SDS011;2730;51.512;7.504;2022-12-04T08:32:58;19.85;;;8.98;;
5414;SDS011;2730;51.512;7.504;2022-12-04T08:35:26;28.48;;;9.50;;
5414;SDS011;2730;51.512;7.504;2022-12-04T08:37:53;21.10;;;8.45;;
5414;SDS011;2730;51.512;7.504;2022-12-04T08:40:20;21.80;;;9.50;;
5414;SDS011;2730;51.512;7.504;2022-12-04T08:42:47;25.98;;;10.27;;
5414;SDS011;2730;51.512;7.504;2022-12-04T08:45:14;23.13;;;10.93;;
5414;SDS011;2730;51.512;7.504;2022-12-04T08:47:41;25.40;;;10.43;;
5414;SDS011;2730;51.512;7.504;2022-12-04T08:50:08;24.60;;;10.65;;
5414;SDS011;2730;51.512;7.504;2022-12-04T08:52:37;22.90;;;8.57;;
5414;SDS011;2730;51.512;7.504;2022-12-04T08:55:04;19.95;;;9.27;;
5414;SDS011;2730;51.512;7.504;2022-12-04T08:57:31;22.00;;;8.60;;
5414;SDS011;2730;51.512;7.504;2022-12-04T08:59:58;23.90;;;10.60;;
5414;SDS011;2730;51.512;7.504;2022-12-04T09:02:25;25.98;;;10.57;;
5414;SDS011;2730;51.512;7.504;2022-12-04T09:04:52;23.17;;;10.82;;
5414;SDS011;2730;51.512;7.504;2022-12-04T09:07:19;19.83;;;10.50;;
5414;SDS011;2730;51.512;7.504;2022-12-04T09:09:47;26.13;;;9.55;;
5414;SDS011;2730;51.512;7.504;2022-12-04T09:12:14;24.70;;;10.75;;
5414;SDS011;2730;51.512;7.504;2022-12-04T09:14:41;23.13;;;10.48;;
5414;SDS011;2730;51.512;7.504;2022-12-04T09:17:08;22.48;;;9.50;;
5414;SDS011;2730;51.512;7.504;2022-12-04T09:19:35;22.75;;;10.02;;
5414;SDS011;2730;51.512;7.504;2022-12-04T09:22:03;24.55;;;9.30;;
5414;SDS011;2730;51.512;7.504;2022-12-04T09:24:30;21.52;;;9.02;;
5414;SDS011;2730;51.512;7.504;2022-12-04T09:26:59;29.75;;;10.55;;
5414;SDS011;2730;51.512;7.504;2022-12-04T09:29:26;20.67;;;10.32;;
5414;SDS011;2730;51.512;7.504;2022-12-04T09:31:53;26.38;;;10.10;;
5414;SDS011;2730;51.512;7.504;2022-12-04T09:34:20;24.30;;;10.25;;
5414;SDS011;2730;51.512;7.504;2022-12-04T09:36:47;23.17;;;10.68;;
5414;SDS011;2730;51.512;7.504;2022-12-04T09:39:14;24.50;;;10.20;;
5414;SDS011;2730;51.512;7.504;2022-12-04T09:44:38;26.38;;;10.50;;
5414;SDS011;2730;51.512;7.504;2022-12-04T09:47:10;22.20;;;9.75;;
5414;SDS011;2730;51.512;7.504;2022-12-04T09:49:45;22.42;;;9.88;;
5414;SDS011;2730;51.512;7.504;2022-12-04T09:52:20;25.27;;;10.70;;
5414;SDS011;2730;51.512;7.504;2022-12-04T09:54:55;24.85;;;8.98;;
5414;SDS011;2730;51.512;7.504;2022-12-04T09:57:27;24.23;;;11.00;;
5414;SDS011;2730;51.512;7.504;2022-12-04T10:00:03;22.88;;;9.80;;
5414;SDS011;2730;51.512;7.504;2022-12-04T10:02:33;29.88;;;11.05;;
5414;SDS011;2730;51.512;7.504;2022-12-04T10:05:02;24.23;;;11.02;;
5414;SDS011;2730;51.512;7.504;2022-12-04T10:07:31;24.02;;;10.07;;
5414;SDS011;2730;51.512;7.504;2022-12-04T10:10:03;23.42;;;9.98;;
5414;SDS011;2730;51.512;7.504;2022-12-04T10:12:35;26.33;;;13.30;;
5414;SDS011;2730;51.512;7.504;2022-12-04T10:15:11;28.23;;;10.52;;
5414;SDS011;2730;51.512;7.504;2022-12-04T10:17:54;25.20;;;10.95;;
5414;SDS011;2730;51.512;7.504;2022-12-04T10:20:37;25.65;;;9.45;;
5414;SDS011;2730;51.512;7.504;2022-12-04T10:23:24;24.27;;;9.70;;
5414;SDS011;2730;51.512;7.504;2022-12-04T10:26:01;23.73;;;10.90;;
5414;SDS011;2730;51.512;7.504;2022-12-04T10:28:32;24.55;;;10.70;;
5414;SDS011;2730;51.512;7.504;2022-12-04T10:31:03;22.52;;;10.85;;
5414;SDS011;2730;51.512;7.504;2022-12-04T10:33:35;21.48;;;9.30;;
5414;SDS011;2730;51.512;7.504;2022-12-04T10:36:03;22.98;;;10.02;;
5414;SDS011;2730;51.512;7.504;2022-12-04T10:38:36;19.75;;;9.52;;
5414;SDS011;2730;51.512;7.504;2022-12-04T10:41:09;21.55;;;9.23;;
5414;SDS011;2730;51.512;7.504;2022-12-04T10:43:43;17.77;;;7.95;;
5414;SDS011;2730;51.512;7.504;2022-12-04T10:46:12;17.50;;;8.77;;
5414;SDS011;2730;51.512;7.504;2022-12-04T10:48:40;20.83;;;9.40;;
5414;SDS011;2730;51.512;7.504;2022-12-04T10:51:15;18.15;;;7.70;;
5414;SDS011;2730;51.512;7.504;2022-12-04T10:53:43;19.85;;;7.80;;
5414;SDS011;2730;51.512;7.504;2022-12-04T10:56:14;19.73;;;9.82;;
5414;SDS011;2730;51.512;7.504;2022-12-04T10:58:53;24.35;;;9.40;;
5414;SDS011;2730;51.512;7.504;2022-12-04T11:01:20;19.80;;;8.32;;
5414;SDS011;2730;51.512;7.504;2022-12-04T11:03:55;18.02;;;7.95;;
5414;SDS011;2730;51.512;7.504;2022-12-04T11:06:25;21.83;;;9.57;;
5414;SDS011;2730;51.512;7.504;2022-12-04T11:08:53;25.75;;;8.45;;
5414;SDS011;2730;51.512;7.504;2022-12-04T11:11:25;24.33;;;10.48;;
5414;SDS011;2730;51.512;7.504;2022-12-04T11:14:03;23.13;;;10.02;;
5414;SDS011;2730;51.512;7.504;2022-12-04T11:16:33;22.05;;;9.40;;
5414;SDS011;2730;51.512;7.504;2022-12-04T11:19:02;25.95;;;9.77;;
5414;SDS011;2730;51.512;7.504;2022-12-04T11:21:43;23.17;;;9.95;;
5414;SDS011;2730;51.512;7.504;2022-12-04T11:24:14;24.60;;;10.13;;
5414;SDS011;2730;51.512;7.504;2022-12-04T11:26:46;23.58;;;9.52;;
5414;SDS011;2730;51.512;7.504;2022-12-04T11:29:15;23.95;;;10.23;;
5414;SDS011;2730;51.512;7.504;2022-12-04T11:31:46;22.92;;;9.93;;
5414;SDS011;2730;51.512;7.504;2022-12-04T11:34:16;22.00;;;9.57;;
5414;SDS011;2730;51.512;7.504;2022-12-04T11:36:48;22.48;;;10.40;;
5414;SDS011;2730;51.512;7.504;2022-12-04T11:39:19;18.20;;;9.10;;
5414;SDS011;2730;51.512;7.504;2022-12-04T11:41:57;20.15;;;9.50;;
5414;SDS011;2730;51.512;7.504;2022-12-04T11:44:28;25.52;;;10.13;;
5414;SDS011;2730;51.512;7.504;2022-12-04T11:46:58;17.05;;;8.63;;
5414;SDS011;2730;51.512;7.504;2022-12-04T11:49:27;19.92;;;7.28;;
5414;SDS011;2730;51.512;7.504;2022-12-04T11:51:59;19.60;;;7.15;;
5414;SDS011;2730;51.512;7.504;2022-12-04T11:54:39;19.70;;;9.27;;
5414;SDS011;2730;51.512;7.504;2022-12-04T11:57:18;21.58;;;8.93;;
5414;SDS011;2730;51.512;7.504;2022-12-04T11:59:56;22.40;;;8.45;;
5414;SDS011;2730;51.512;7.504;2022-12-04T12:02:43;21.45;;;9.23;;
5414;SDS011;2730;51.512;7.504;2022-12-04T12:05:30;23.85;;;9.93;;
5414;SDS011;2730;51.512;7.504;2022-12-04T12:08:11;21.27;;;8.90;;
5414;SDS011;2730;51.512;7.504;2022-12-04T12:10:47;17.95;;;8.35;;
5414;SDS011;2730;51.512;7.504;2022-12-04T12:13:24;15.93;;;8.00;;
5414;SDS011;2730;51.512;7.504;2022-12-04T12:16:05;15.48;;;7.78;;
5414;SDS011;2730;51.512;7.504;2022-12-04T12:18:44;13.73;;;8.02;;
5414;SDS011;2730;51.512;7.504;2022-12-04T12:21:20;17.70;;;6.57;;
5414;SDS011;2730;51.512;7.504;2022-12-04T12:23:59;13.57;;;6.18;;
5414;SDS011;2730;51.512;7.504;2022-12-04T12:26:35;18.33;;;9.02;;
5414;SDS011;2730;51.512;7.504;2022-12-04T12:29:13;16.13;;;7.65;;
5414;SDS011;2730;51.512;7.504;2022-12-04T12:31:54;18.45;;;9.15;;
5414;SDS011;2730;51.512;7.504;2022-12-04T12:34:36;19.48;;;9.00;;
5414;SDS011;2730;51.512;7.504;2022-12-04T12:37:08;16.17;;;8.38;;
5414;SDS011;2730;51.512;7.504;2022-12-04T12:39:40;16.63;;;8.55;;
5414;SDS011;2730;51.512;7.504;2022-12-04T12:42:11;13.00;;;7.13;;
5414;SDS011;2730;51.512;7.504;2022-12-04T12:44:45;17.85;;;8.77;;
5414;SDS011;2730;51.512;7.504;2022-12-04T12:47:20;20.35;;;10.02;;
5414;SDS011;2730;51.512;7.504;2022-12-04T12:49:51;21.45;;;9.18;;
5414;SDS011;2730;51.512;7.504;2022-12-04T12:52:26;20.45;;;8.80;;
5414;SDS011;2730;51.512;7.504;2022-12-04T12:55:00;18.52;;;8.88;;
5414;SDS011;2730;51.512;7.504;2022-12-04T12:57:35;19.38;;;8.32;;
5414;SDS011;2730;51.512;7.504;2022-12-04T13:00:05;19.90;;;8.82;;
5414;SDS011;2730;51.512;7.504;2022-12-04T13:02:42;19.73;;;9.65;;
5414;SDS011;2730;51.512;7.504;2022-12-04T13:05:12;20.52;;;8.25;;
5414;SDS011;2730;51.512;7.504;2022-12-04T13:07:46;14.35;;;6.90;;
5414;SDS011;2730;51.512;7.504;2022-12-04T13:10:19;16.70;;;8.45;;
5414;SDS011;2730;51.512;7.504;2022-12-04T13:12:50;22.65;;;10.02;;
5414;SDS011;2730;51.512;7.504;2022-12-04T13:15:21;20.95;;;7.70;;
5414;SDS011;2730;51.512;7.504;2022-12-04T13:17:53;17.48;;;9.30;;
5414;SDS011;2730;51.512;7.504;2022-12-04T13:20:23;19.42;;;8.60;;
5414;SDS011;2730;51.512;7.504;2022-12-04T13:23:07;16.45;;;7.80;;
5414;SDS011;2730;51.512;7.504;2022-12-04T13:25:44;18.45;;;9.18;;
5414;SDS011;2730;51.512;7.504;2022-12-04T13:28:24;15.23;;;6.80;;
5414;SDS011;2730;51.512;7.504;2022-12-04T13:31:02;19.33;;;9.15;;
5414;SDS011;2730;51.512;7.504;2022-12-04T13:33:55;21.52;;;9.00;;
5414;SDS011;2730;51.512;7.504;2022-12-04T13:36:35;22.10;;;7.90;;
5414;SDS011;2730;51.512;7.504;2022-12-04T13:39:22;17.10;;;7.32;;
5414;SDS011;2730;51.512;7.504;2022-12-04T13:42:19;17.10;;;8.43;;
5414;SDS011;2730;51.512;7.504;2022-12-04T13:44:51;16.33;;;9.10;;
5414;SDS011;2730;51.512;7.504;2022-12-04T13:47:24;20.17;;;7.95;;
5414;SDS011;2730;51.512;7.504;2022-12-04T13:50:05;17.65;;;8.73;;
5414;SDS011;2730;51.512;7.504;2022-12-04T13:52:46;19.42;;;10.45;;
5414;SDS011;2730;51.512;7.504;2022-12-04T13:55:24;17.95;;;8.73;;
5414;SDS011;2730;51.512;7.504;2022-12-04T13:57:55;17.55;;;8.82;;
5414;SDS011;2730;51.512;7.504;2022-12-04T14:00:24;15.40;;;7.75;;
5414;SDS011;2730;51.512;7.504;2022-12-04T14:02:54;17.67;;;7.55;;
5414;SDS011;2730;51.512;7.504;2022-12-04T14:05:28;14.55;;;7.65;;
5414;SDS011;2730;51.512;7.504;2022-12-04T14:07:59;12.63;;;6.88;;
5414;SDS011;2730;51.512;7.504;2022-12-04T14:10:29;16.38;;;8.80;;
5414;SDS011;2730;51.512;7.504;2022-12-04T14:12:58;19.75;;;9.55;;
5414;SDS011;2730;51.512;7.504;2022-12-04T14:15:28;16.77;;;9.48;;
5414;SDS011;2730;51.512;7.504;2022-12-04T14:17:58;16.73;;;8.23;;
5414;SDS011;2730;51.512;7.504;2022-12-04T14:20:29;20.45;;;10.15;;
5414;SDS011;2730;51.512;7.504;2022-12-04T14:23:05;16.00;;;9.27;;
5414;SDS011;2730;51.512;7.504;2022-12-04T14:25:34;23.45;;;9.50;;
5414;SDS011;2730;51.512;7.504;2022-12-04T14:28:13;21.85;;;9.30;;
5414;SDS011;2730;51.512;7.504;2022-12-04T14:30:55;18.90;;;9.38;;
5414;SDS011;2730;51.512;7.504;2022-12-04T14:33:38;23.00;;;9.02;;
5414;SDS011;2730;51.512;7.504;2022-12-04T14:36:15;22.55;;;9.80;;
5414;SDS011;2730;51.512;7.504;2022-12-04T14:38:48;19.70;;;9.15;;
5414;SDS011;2730;51.512;7.504;2022-12-04T14:41:27;21.17;;;10.85;;
5414;SDS011;2730;51.512;7.504;2022-12-04T14:43:54;20.90;;;9.73;;
5414;SDS011;2730;51.512;7.504;2022-12-04T14:46:23;23.90;;;11.00;;
5414;SDS011;2730;51.512;7.504;2022-12-04T14:48:57;22.35;;;9.90;;
5414;SDS011;2730;51.512;7.504;2022-12-04T14:51:35;20.23;;;9.73;;
5414;SDS011;2730;51.512;7.504;2022-12-04T14:54:08;23.10;;;9.88;;
5414;SDS011;2730;51.512;7.504;2022-12-04T14:56:47;21.13;;;10.10;;
5414;SDS011;2730;51.512;7.504;2022-12-04T14:59:21;22.75;;;10.10;;
5414;SDS011;2730;51.512;7.504;2022-12-04T15:01:50;23.08;;;10.45;;
5414;SDS011;2730;51.512;7.504;2022-12-04T15:04:21;20.30;;;9.68;;
5414;SDS011;2730;51.512;7.504;2022-12-04T15:06:51;22.55;;;11.13;;
5414;SDS011;2730;51.512;7.504;2022-12-04T15:09:20;22.00;;;10.90;;
5414;SDS011;2730;51.512;7.504;2022-12-04T15:12:13;21.55;;;12.25;;
5414;SDS011;2730;51.512;7.504;2022-12-04T15:15:01;23.20;;;9.93;;
5414;SDS011;2730;51.512;7.504;2022-12-04T15:17:34;24.98;;;9.75;;
5414;SDS011;2730;51.512;7.504;2022-12-04T15:20:08;22.98;;;10.55;;
5414;SDS011;2730;51.512;7.504;2022-12-04T15:22:38;21.48;;;10.13;;
5414;SDS011;2730;51.512;7.504;2022-12-04T15:25:05;25.13;;;10.82;;
5414;SDS011;2730;51.512;7.504;2022-12-04T15:27:38;19.08;;;9.82;;
5414;SDS011;2730;51.512;7.504;2022-12-04T15:30:12;24.02;;;10.15;;
5414;SDS011;2730;51.512;7.504;2022-12-04T15:32:41;22.55;;;10.55;;
5414;SDS011;2730;51.512;7.504;2022-12-04T15:35:10;18.40;;;9.70;;
5414;SDS011;2730;51.512;7.504;2022-12-04T15:37:45;17.10;;;9.80;;
5414;SDS011;2730;51.512;7.504;2022-12-04T15:40:17;26.23;;;11.10;;
5414;SDS011;2730;51.512;7.504;2022-12-04T15:42:46;23.52;;;10.25;;
5414;SDS011;2730;51.512;7.504;2022-12-04T15:45:28;21.73;;;9.90;;
5414;SDS011;2730;51.512;7.504;2022-12-04T15:48:01;21.38;;;9.55;;
5414;SDS011;2730;51.512;7.504;2022-12-04T15:50:28;19.55;;;10.00;;
5414;SDS011;2730;51.512;7.504;2022-12-04T15:53:01;21.75;;;10.60;;
5414;SDS011;2730;51.512;7.504;2022-12-04T15:55:32;27.75;;;11.63;;
5414;SDS011;2730;51.512;7.504;2022-12-04T15:58:03;22.98;;;11.68;;
5414;SDS011;2730;51.512;7.504;2022-12-04T16:00:34;32.03;;;12.25;;
5414;SDS011;2730;51.512;7.504;2022-12-04T16:03:04;27.65;;;11.40;;
5414;SDS011;2730;51.512;7.504;2022-12-04T16:05:43;24.52;;;10.40;;
5414;SDS011;2730;51.512;7.504;2022-12-04T16:08:21;24.02;;;7.57;;
5414;SDS011;2730;51.512;7.504;2022-12-04T16:10:56;21.60;;;11.52;;
5414;SDS011;2730;51.512;7.504;2022-12-04T16:13:26;24.20;;;11.23;;
5414;SDS011;2730;51.512;7.504;2022-12-04T16:15:54;25.75;;;10.90;;
5414;SDS011;2730;51.512;7.504;2022-12-04T16:18:24;31.33;;;12.05;;
5414;SDS011;2730;51.512;7.504;2022-12-04T16:20:51;29.45;;;12.23;;
5414;SDS011;2730;51.512;7.504;2022-12-04T16:23:20;28.52;;;12.75;;
5414;SDS011;2730;51.512;7.504;2022-12-04T16:25:49;25.85;;;11.30;;
5414;SDS011;2730;51.512;7.504;2022-12-04T16:28:16;26.98;;;11.60;;
5414;SDS011;2730;51.512;7.504;2022-12-04T16:30:42;20.60;;;10.93;;
5414;SDS011;2730;51.512;7.504;2022-12-04T16:33:09;26.48;;;11.70;;
5414;SDS011;2730;51.512;7.504;2022-12-04T16:35:38;22.98;;;11.60;;
5414;SDS011;2730;51.512;7.504;2022-12-04T16:38:05;28.95;;;11.95;;
5414;SDS011;2730;51.512;7.504;2022-12-04T16:40:33;26.15;;;11.77;;
5414;SDS011;2730;51.512;7.504;2022-12-04T16:43:00;24.52;;;11.00;;
5414;SDS011;2730;51.512;7.504;2022-12-04T16:45:28;28.13;;;11.27;;
5414;SDS011;2730;51.512;7.504;2022-12-04T16:47:57;26.50;;;12.43;;
5414;SDS011;2730;51.512;7.504;2022-12-04T16:50:24;29.80;;;13.15;;
5414;SDS011;2730;51.512;7.504;2022-12-04T16:52:52;31.23;;;12.93;;
5414;SDS011;2730;51.512;7.504;2022-12-04T16:55:20;29.35;;;13.20;;
5414;SDS011;2730;51.512;7.504;2022-12-04T16:57:51;28.05;;;12.13;;
5414;SDS011;2730;51.512;7.504;2022-12-04T17:00:18;30.08;;;12.15;;
5414;SDS011;2730;51.512;7.504;2022-12-04T17:02:45;30.85;;;13.13;;
5414;SDS011;2730;51.512;7.504;2022-12-04T17:05:15;47.90;;;15.93;;
5414;SDS011;2730;51.512;7.504;2022-12-04T17:07:44;30.88;;;13.73;;
5414;SDS011;2730;51.512;7.504;2022-12-04T17:10:11;32.70;;;13.93;;
5414;SDS011;2730;51.512;7.504;2022-12-04T17:12:38;31.08;;;13.40;;
5414;SDS011;2730;51.512;7.504;2022-12-04T17:15:06;35.80;;;14.43;;
5414;SDS011;2730;51.512;7.504;2022-12-04T17:17:34;35.67;;;14.30;;
5414;SDS011;2730;51.512;7.504;2022-12-04T17:20:01;28.75;;;12.65;;
5414;SDS011;2730;51.512;7.504;2022-12-04T17:22:28;30.08;;;11.77;;
5414;SDS011;2730;51.512;7.504;2022-12-04T17:29:59;33.03;;;13.75;;
5414;SDS011;2730;51.512;7.504;2022-12-04T17:32:27;30.38;;;12.38;;
5414;SDS011;2730;51.512;7.504;2022-12-04T17:34:56;75.47;;;23.80;;
5414;SDS011;2730;51.512;7.504;2022-12-04T17:37:23;35.95;;;14.75;;
5414;SDS011;2730;51.512;7.504;2022-12-04T17:39:50;52.80;;;20.38;;
5414;SDS011;2730;51.512;7.504;2022-12-04T17:42:17;39.22;;;14.00;;
5414;SDS011;2730;51.512;7.504;2022-12-04T17:44:44;32.90;;;14.85;;
5414;SDS011;2730;51.512;7.504;2022-12-04T17:47:11;34.60;;;13.63;;
5414;SDS011;2730;51.512;7.504;2022-12-04T17:49:39;38.95;;;14.32;;
5414;SDS011;2730;51.512;7.504;2022-12-04T17:52:06;33.50;;;14.52;;
5414;SDS011;2730;51.512;7.504;2022-12-04T17:54:33;36.08;;;12.68;;
5414;SDS011;2730;51.512;7.504;2022-12-04T17:57:00;40.00;;;14.55;;
5414;SDS011;2730;51.512;7.504;2022-12-04T17:59:26;36.95;;;14.02;;
5414;SDS011;2730;51.512;7.504;2022-12-04T18:01:53;28.05;;;11.93;;
5414;SDS011;2730;51.512;7.504;2022-12-04T18:04:20;38.92;;;15.40;;
5414;SDS011;2730;51.512;7.504;2022-12-04T18:06:48;37.67;;;13.75;;
5414;SDS011;2730;51.512;7.504;2022-12-04T18:09:16;42.40;;;13.23;;
5414;SDS011;2730;51.512;7.504;2022-12-04T18:11:44;36.17;;;14.73;;
5414;SDS011;2730;51.512;7.504;2022-12-04T18:14:12;35.35;;;13.88;;
5414;SDS011;2730;51.512;7.504;2022-12-04T18:16:41;34.20;;;13.25;;
5414;SDS011;2730;51.512;7.504;2022-12-04T18:19:09;38.15;;;13.75;;
5414;SDS011;2730;51.512;7.504;2022-12-04T18:21:37;30.50;;;12.48;;
5414;SDS011;2730;51.512;7.504;2022-12-04T18:24:05;34.33;;;12.85;;
5414;SDS011;2730;51.512;7.504;2022-12-04T18:26:33;30.33;;;13.65;;
5414;SDS011;2730;51.512;7.504;2022-12-04T18:29:02;46.15;;;16.45;;
5414;SDS011;2730;51.512;7.504;2022-12-04T18:31:29;36.72;;;15.38;;
5414;SDS011;2730;51.512;7.504;2022-12-04T18:33:56;36.83;;;16.48;;
5414;SDS011;2730;51.512;7.504;2022-12-04T18:36:23;37.83;;;14.85;;
5414;SDS011;2730;51.512;7.504;2022-12-04T18:38:52;40.90;;;13.43;;
5414;SDS011;2730;51.512;7.504;2022-12-04T18:41:21;42.70;;;14.07;;
5414;SDS011;2730;51.512;7.504;2022-12-04T18:43:48;38.50;;;14.80;;
5414;SDS011;2730;51.512;7.504;2022-12-04T18:46:16;37.38;;;13.55;;
5414;SDS011;2730;51.512;7.504;2022-12-04T18:48:43;44.78;;;14.85;;
5414;SDS011;2730;51.512;7.504;2022-12-04T18:51:15;40.38;;;16.05;;
5414;SDS011;2730;51.512;7.504;2022-12-04T18:53:44;33.88;;;13.73;;
5414;SDS011;2730;51.512;7.504;2022-12-04T18:56:11;36.00;;;15.02;;
5414;SDS011;2730;51.512;7.504;2022-12-04T18:58:39;37.72;;;14.48;;
5414;SDS011;2730;51.512;7.504;2022-12-04T19:01:06;38.15;;;14.90;;
5414;SDS011;2730;51.512;7.504;2022-12-04T19:03:33;34.83;;;13.55;;
5414;SDS011;2730;51.512;7.504;2022-12-04T19:06:00;41.88;;;16.25;;
5414;SDS011;2730;51.512;7.504;2022-12-04T19:08:28;44.58;;;14.70;;
5414;SDS011;2730;51.512;7.504;2022-12-04T19:10:55;41.75;;;13.63;;
5414;SDS011;2730;51.512;7.504;2022-12-04T19:13:29;42.40;;;15.57;;
5414;SDS011;2730;51.512;7.504;2022-12-04T19:15:58;38.00;;;14.60;;
5414;SDS011;2730;51.512;7.504;2022-12-04T19:18:25;123.93;;;40.40;;
5414;SDS011;2730;51.512;7.504;2022-12-04T19:20:52;78.43;;;27.40;;
5414;SDS011;2730;51.512;7.504;2022-12-04T19:23:18;43.40;;;16.27;;
5414;SDS011;2730;51.512;7.504;2022-12-04T19:25:52;37.63;;;15.05;;
5414;SDS011;2730;51.512;7.504;2022-12-04T19:28:20;48.88;;;19.73;;
5414;SDS011;2730;51.512;7.504;2022-12-04T19:30:46;37.20;;;17.10;;
5414;SDS011;2730;51.512;7.504;2022-12-04T19:33:15;25.15;;;10.48;;
5414;SDS011;2730;51.512;7.504;2022-12-04T19:35:42;34.95;;;14.60;;
5414;SDS011;2730;51.512;7.504;2022-12-04T19:38:08;33.70;;;15.23;;
5414;SDS011;2730;51.512;7.504;2022-12-04T19:40:35;45.33;;;17.45;;
5414;SDS011;2730;51.512;7.504;2022-12-04T19:43:02;30.13;;;12.55;;
5414;SDS011;2730;51.512;7.504;2022-12-04T19:45:29;42.75;;;14.07;;
5414;SDS011;2730;51.512;7.504;2022-12-04T19:47:56;35.40;;;13.85;;
5414;SDS011;2730;51.512;7.504;2022-12-04T19:50:24;41.60;;;15.50;;
5414;SDS011;2730;51.512;7.504;2022-12-04T19:52:51;41.53;;;15.68;;
5414;SDS011;2730;51.512;7.504;2022-12-04T19:55:17;40.15;;;15.18;;
5414;SDS011;2730;51.512;7.504;2022-12-04T19:57:44;37.55;;;12.63;;
5414;SDS011;2730;51.512;7.504;2022-12-04T20:00:11;32.28;;;13.18;;
5414;SDS011;2730;51.512;7.504;2022-12-04T20:02:38;27.77;;;11.57;;
5414;SDS011;2730;51.512;7.504;2022-12-04T20:05:05;29.48;;;13.02;;
5414;SDS011;2730;51.512;7.504;2022-12-04T20:07:34;35.67;;;13.45;;
5414;SDS011;2730;51.512;7.504;2022-12-04T20:10:00;34.50;;;14.32;;
5414;SDS011;2730;51.512;7.504;2022-12-04T20:12:27;32.45;;;12.75;;
5414;SDS011;2730;51.512;7.504;2022-12-04T20:14:54;35.58;;;15.15;;
5414;SDS011;2730;51.512;7.504;2022-12-04T20:17:21;30.58;;;13.27;;
5414;SDS011;2730;51.512;7.504;2022-12-04T20:19:48;21.55;;;9.73;;
5414;SDS011;2730;51.512;7.504;2022-12-04T20:22:15;39.35;;;15.10;;
5414;SDS011;2730;51.512;7.504;2022-12-04T20:24:43;38.33;;;14.55;;
5414;SDS011;2730;51.512;7.504;2022-12-04T20:27:10;31.88;;;13.40;;
5414;SDS011;2730;51.512;7.504;2022-12-04T20:29:37;37.00;;;15.82;;
5414;SDS011;2730;51.512;7.504;2022-12-04T20:32:04;37.42;;;13.40;;
5414;SDS011;2730;51.512;7.504;2022-12-04T20:34:30;44.10;;;14.68;;
5414;SDS011;2730;51.512;7.504;2022-12-04T20:36:57;34.88;;;13.77;;
5414;SDS011;2730;51.512;7.504;2022-12-04T20:39:24;32.08;;;14.95;;
5414;SDS011;2730;51.512;7.504;2022-12-04T20:41:52;27.48;;;11.32;;
5414;SDS011;2730;51.512;7.504;2022-12-04T20:44:19;36.42;;;14.35;;
5414;SDS011;2730;51.512;7.504;2022-12-04T20:46:46;29.85;;;13.15;;
5414;SDS011;2730;51.512;7.504;2022-12-04T20:49:14;37.78;;;15.50;;
5414;SDS011;2730;51.512;7.504;2022-12-04T20:51:45;37.05;;;13.65;;
5414;SDS011;2730;51.512;7.504;2022-12-04T20:54:13;34.88;;;14.48;;
5414;SDS011;2730;51.512;7.504;2022-12-04T20:56:42;42.63;;;13.25;;
5414;SDS011;2730;51.512;7.504;2022-12-04T20:59:11;40.40;;;14.60;;
5414;SDS011;2730;51.512;7.504;2022-12-04T21:01:39;29.77;;;12.52;;
5414;SDS011;2730;51.512;7.504;2022-12-04T21:04:06;32.92;;;14.45;;
5414;SDS011;2730;51.512;7.504;2022-12-04T21:06:34;31.73;;;13.02;;
5414;SDS011;2730;51.512;7.504;2022-12-04T21:09:03;33.92;;;13.15;;
5414;SDS011;2730;51.512;7.504;2022-12-04T21:11:32;30.70;;;14.10;;
5414;SDS011;2730;51.512;7.504;2022-12-04T21:14:01;37.63;;;13.88;;
5414;SDS011;2730;51.512;7.504;2022-12-04T21:16:49;34.75;;;12.60;;
5414;SDS011;2730;51.512;7.504;2022-12-04T21:19:17;30.90;;;14.65;;